Terminal Aerodrome Forecast
Issued by NWS Blacksburg, VA

Current Version | Previous Version | Text Only | Print | Product List | Glossary On
Versions: 1 2 3 4 5 6 7 8 9 10 11 12 13
000
FTUS41 KRNK 282329
TAFBLF
TAF
KBLF 282329Z 2900/2924 15004KT P6SM BKN250
     FM290900 12004KT P6SM OVC100
     FM291600 15003KT P6SM -RA OVC035
     FM292100 12003KT P6SM OVC050=

USA.gov is the U.S. government's official web portal to all federal, state and local government web resources and services.